sensor_id;sensor_type;location;lat;lon;timestamp;temperature;humidity
19039;DHT22;9652;49.014;12.052;2024-03-07T00:01:24;9.30;58.10
19039;DHT22;9652;49.014;12.052;2024-03-07T00:03:52;9.30;58.20
19039;DHT22;9652;49.014;12.052;2024-03-07T00:06:19;9.20;58.30
19039;DHT22;9652;49.014;12.052;2024-03-07T00:08:47;9.30;58.40
19039;DHT22;9652;49.014;12.052;2024-03-07T00:11:14;9.20;58.50
19039;DHT22;9652;49.014;12.052;2024-03-07T00:13:42;9.10;58.50
19039;DHT22;9652;49.014;12.052;2024-03-07T00:16:09;9.10;58.60
19039;DHT22;9652;49.014;12.052;2024-03-07T00:18:36;9.10;58.60
19039;DHT22;9652;49.014;12.052;2024-03-07T00:21:04;9.10;58.60
19039;DHT22;9652;49.014;12.052;2024-03-07T00:23:31;9.10;58.70
19039;DHT22;9652;49.014;12.052;2024-03-07T00:25:59;9.10;58.70
19039;DHT22;9652;49.014;12.052;2024-03-07T00:28:26;9.00;58.70
19039;DHT22;9652;49.014;12.052;2024-03-07T00:30:59;9.00;58.70
19039;DHT22;9652;49.014;12.052;2024-03-07T00:33:26;9.00;58.70
19039;DHT22;9652;49.014;12.052;2024-03-07T00:35:54;9.00;58.60
19039;DHT22;9652;49.014;12.052;2024-03-07T00:38:21;8.90;59.30
19039;DHT22;9652;49.014;12.052;2024-03-07T00:40:48;8.90;58.60
19039;DHT22;9652;49.014;12.052;2024-03-07T00:43:15;8.90;58.70
19039;DHT22;9652;49.014;12.052;2024-03-07T00:45:42;8.80;58.60
19039;DHT22;9652;49.014;12.052;2024-03-07T00:48:11;8.80;58.60
19039;DHT22;9652;49.014;12.052;2024-03-07T00:50:38;8.70;59.30
19039;DHT22;9652;49.014;12.052;2024-03-07T00:53:08;8.70;58.60
19039;DHT22;9652;49.014;12.052;2024-03-07T00:55:35;8.60;59.20
19039;DHT22;9652;49.014;12.052;2024-03-07T00:58:03;8.50;58.60
19039;DHT22;9652;49.014;12.052;2024-03-07T01:00:31;8.60;58.70
19039;DHT22;9652;49.014;12.052;2024-03-07T01:02:58;8.50;58.70
19039;DHT22;9652;49.014;12.052;2024-03-07T01:05:26;8.50;58.80
19039;DHT22;9652;49.014;12.052;2024-03-07T01:07:54;8.50;58.90
19039;DHT22;9652;49.014;12.052;2024-03-07T01:10:21;8.40;58.90
19039;DHT22;9652;49.014;12.052;2024-03-07T01:12:48;8.30;58.90
19039;DHT22;9652;49.014;12.052;2024-03-07T01:15:17;8.30;59.00
19039;DHT22;9652;49.014;12.052;2024-03-07T01:17:44;8.30;59.00
19039;DHT22;9652;49.014;12.052;2024-03-07T01:20:11;8.30;59.00
19039;DHT22;9652;49.014;12.052;2024-03-07T01:22:40;8.20;59.00
19039;DHT22;9652;49.014;12.052;2024-03-07T01:25:07;8.20;59.10
19039;DHT22;9652;49.014;12.052;2024-03-07T01:27:34;8.10;59.10
19039;DHT22;9652;49.014;12.052;2024-03-07T01:30:01;8.10;59.10
19039;DHT22;9652;49.014;12.052;2024-03-07T01:32:28;8.00;59.10
19039;DHT22;9652;49.014;12.052;2024-03-07T01:34:56;8.00;59.10
19039;DHT22;9652;49.014;12.052;2024-03-07T01:37:23;8.00;59.20
19039;DHT22;9652;49.014;12.052;2024-03-07T01:39:51;8.00;59.30
19039;DHT22;9652;49.014;12.052;2024-03-07T01:42:18;7.90;59.30
19039;DHT22;9652;49.014;12.052;2024-03-07T01:44:45;7.90;59.30
19039;DHT22;9652;49.014;12.052;2024-03-07T01:47:12;7.90;59.30
19039;DHT22;9652;49.014;12.052;2024-03-07T01:49:41;7.80;59.30
19039;DHT22;9652;49.014;12.052;2024-03-07T01:52:09;7.80;59.40
19039;DHT22;9652;49.014;12.052;2024-03-07T01:54:38;7.70;59.30
19039;DHT22;9652;49.014;12.052;2024-03-07T01:57:07;7.70;59.40
19039;DHT22;9652;49.014;12.052;2024-03-07T01:59:35;7.70;59.50
19039;DHT22;9652;49.014;12.052;2024-03-07T02:02:02;7.60;59.40
19039;DHT22;9652;49.014;12.052;2024-03-07T02:04:29;7.60;59.50
19039;DHT22;9652;49.014;12.052;2024-03-07T02:06:56;7.60;59.50
19039;DHT22;9652;49.014;12.052;2024-03-07T02:09:24;7.60;59.50
19039;DHT22;9652;49.014;12.052;2024-03-07T02:11:52;7.50;59.50
19039;DHT22;9652;49.014;12.052;2024-03-07T02:14:20;7.50;59.50
19039;DHT22;9652;49.014;12.052;2024-03-07T02:16:47;7.50;59.70
19039;DHT22;9652;49.014;12.052;2024-03-07T02:19:15;7.40;59.60
19039;DHT22;9652;49.014;12.052;2024-03-07T02:21:44;7.40;59.80
19039;DHT22;9652;49.014;12.052;2024-03-07T02:24:11;7.40;59.80
19039;DHT22;9652;49.014;12.052;2024-03-07T02:26:39;7.40;59.80
19039;DHT22;9652;49.014;12.052;2024-03-07T02:29:06;7.30;59.80
19039;DHT22;9652;49.014;12.052;2024-03-07T02:31:34;7.30;59.90
19039;DHT22;9652;49.014;12.052;2024-03-07T02:34:07;7.30;60.00
19039;DHT22;9652;49.014;12.052;2024-03-07T02:36:34;7.20;59.90
19039;DHT22;9652;49.014;12.052;2024-03-07T02:39:03;7.20;60.00
19039;DHT22;9652;49.014;12.052;2024-03-07T02:41:30;7.20;60.10
19039;DHT22;9652;49.014;12.052;2024-03-07T02:43:59;7.20;60.10
19039;DHT22;9652;49.014;12.052;2024-03-07T02:46:29;7.20;60.10
19039;DHT22;9652;49.014;12.052;2024-03-07T02:48:57;7.10;60.00
19039;DHT22;9652;49.014;12.052;2024-03-07T02:51:24;7.10;60.10
19039;DHT22;9652;49.014;12.052;2024-03-07T02:53:51;7.10;60.20
19039;DHT22;9652;49.014;12.052;2024-03-07T02:56:20;7.00;60.00
19039;DHT22;9652;49.014;12.052;2024-03-07T02:58:47;7.00;60.10
19039;DHT22;9652;49.014;12.052;2024-03-07T03:01:14;7.00;60.10
19039;DHT22;9652;49.014;12.052;2024-03-07T03:03:41;7.00;60.30
19039;DHT22;9652;49.014;12.052;2024-03-07T03:06:09;7.00;60.50
19039;DHT22;9652;49.014;12.052;2024-03-07T03:08:36;6.90;60.40
19039;DHT22;9652;49.014;12.052;2024-03-07T03:11:04;6.90;60.50
19039;DHT22;9652;49.014;12.052;2024-03-07T03:13:37;6.90;60.60
19039;DHT22;9652;49.014;12.052;2024-03-07T03:16:04;6.80;60.70
19039;DHT22;9652;49.014;12.052;2024-03-07T03:18:32;6.80;60.70
19039;DHT22;9652;49.014;12.052;2024-03-07T03:20:59;6.80;60.80
19039;DHT22;9652;49.014;12.052;2024-03-07T03:23:27;6.80;61.00
19039;DHT22;9652;49.014;12.052;2024-03-07T03:25:55;6.80;61.20
19039;DHT22;9652;49.014;12.052;2024-03-07T03:28:22;6.80;61.30
19039;DHT22;9652;49.014;12.052;2024-03-07T03:30:51;6.80;61.30
19039;DHT22;9652;49.014;12.052;2024-03-07T03:33:19;6.80;61.50
19039;DHT22;9652;49.014;12.052;2024-03-07T03:35:47;6.80;61.30
19039;DHT22;9652;49.014;12.052;2024-03-07T03:38:14;6.80;61.30
19039;DHT22;9652;49.014;12.052;2024-03-07T03:40:41;6.80;61.20
19039;DHT22;9652;49.014;12.052;2024-03-07T03:43:08;6.80;61.20
19039;DHT22;9652;49.014;12.052;2024-03-07T03:45:35;6.80;61.10
19039;DHT22;9652;49.014;12.052;2024-03-07T03:48:05;6.80;61.20
19039;DHT22;9652;49.014;12.052;2024-03-07T03:50:32;6.80;61.30
19039;DHT22;9652;49.014;12.052;2024-03-07T03:52:59;6.80;61.20
19039;DHT22;9652;49.014;12.052;2024-03-07T03:55:29;6.80;61.30
19039;DHT22;9652;49.014;12.052;2024-03-07T03:57:58;6.80;61.30
19039;DHT22;9652;49.014;12.052;2024-03-07T04:00:25;6.80;61.50
19039;DHT22;9652;49.014;12.052;2024-03-07T04:02:52;6.80;61.60
19039;DHT22;9652;49.014;12.052;2024-03-07T04:05:21;6.80;61.60
19039;DHT22;9652;49.014;12.052;2024-03-07T04:07:48;6.80;61.70
19039;DHT22;9652;49.014;12.052;2024-03-07T04:10:17;6.90;61.80
19039;DHT22;9652;49.014;12.052;2024-03-07T04:12:45;6.80;61.80
19039;DHT22;9652;49.014;12.052;2024-03-07T04:15:13;6.80;61.80
19039;DHT22;9652;49.014;12.052;2024-03-07T04:17:42;6.90;62.00
19039;DHT22;9652;49.014;12.052;2024-03-07T04:20:10;6.90;61.90
19039;DHT22;9652;49.014;12.052;2024-03-07T04:22:40;6.90;62.00
19039;DHT22;9652;49.014;12.052;2024-03-07T04:25:08;6.90;62.00
19039;DHT22;9652;49.014;12.052;2024-03-07T04:27:36;6.90;62.10
19039;DHT22;9652;49.014;12.052;2024-03-07T04:30:03;6.90;62.00
19039;DHT22;9652;49.014;12.052;2024-03-07T04:32:31;7.00;62.10
19039;DHT22;9652;49.014;12.052;2024-03-07T04:34:59;7.00;62.10
19039;DHT22;9652;49.014;12.052;2024-03-07T04:37:29;7.00;62.00
19039;DHT22;9652;49.014;12.052;2024-03-07T04:39:59;7.00;62.00
19039;DHT22;9652;49.014;12.052;2024-03-07T04:42:26;7.00;62.00
19039;DHT22;9652;49.014;12.052;2024-03-07T04:44:53;7.00;61.90
19039;DHT22;9652;49.014;12.052;2024-03-07T04:47:20;7.00;61.80
19039;DHT22;9652;49.014;12.052;2024-03-07T04:49:47;7.10;61.80
19039;DHT22;9652;49.014;12.052;2024-03-07T04:52:14;7.00;61.60
19039;DHT22;9652;49.014;12.052;2024-03-07T04:54:41;7.00;61.60
19039;DHT22;9652;49.014;12.052;2024-03-07T04:57:09;7.00;61.60
19039;DHT22;9652;49.014;12.052;2024-03-07T04:59:36;7.00;61.50
19039;DHT22;9652;49.014;12.052;2024-03-07T05:02:04;7.00;61.50
19039;DHT22;9652;49.014;12.052;2024-03-07T05:04:31;6.90;61.30
19039;DHT22;9652;49.014;12.052;2024-03-07T05:06:58;6.90;61.30
19039;DHT22;9652;49.014;12.052;2024-03-07T05:09:25;6.90;61.30
19039;DHT22;9652;49.014;12.052;2024-03-07T05:11:54;6.80;61.30
19039;DHT22;9652;49.014;12.052;2024-03-07T05:14:23;6.70;62.00
19039;DHT22;9652;49.014;12.052;2024-03-07T05:16:51;6.70;61.30
19039;DHT22;9652;49.014;12.052;2024-03-07T05:19:31;6.70;62.20
19039;DHT22;9652;49.014;12.052;2024-03-07T05:21:59;6.70;61.30
19039;DHT22;9652;49.014;12.052;2024-03-07T05:24:27;6.60;61.30
19039;DHT22;9652;49.014;12.052;2024-03-07T05:26:54;6.60;61.30
19039;DHT22;9652;49.014;12.052;2024-03-07T05:29:23;6.50;61.30
19039;DHT22;9652;49.014;12.052;2024-03-07T05:31:50;6.50;61.40
19039;DHT22;9652;49.014;12.052;2024-03-07T05:34:18;6.50;61.40
19039;DHT22;9652;49.014;12.052;2024-03-07T05:36:45;6.40;61.40
19039;DHT22;9652;49.014;12.052;2024-03-07T05:39:13;6.50;61.60
19039;DHT22;9652;49.014;12.052;2024-03-07T05:41:43;6.40;61.60
19039;DHT22;9652;49.014;12.052;2024-03-07T05:44:11;6.30;61.60
19039;DHT22;9652;49.014;12.052;2024-03-07T05:46:41;6.20;61.60
19039;DHT22;9652;49.014;12.052;2024-03-07T05:49:12;6.30;61.70
19039;DHT22;9652;49.014;12.052;2024-03-07T05:51:40;6.20;61.70
19039;DHT22;9652;49.014;12.052;2024-03-07T05:54:10;6.20;61.90
19039;DHT22;9652;49.014;12.052;2024-03-07T05:56:39;6.20;62.10
19039;DHT22;9652;49.014;12.052;2024-03-07T05:59:06;6.20;62.20
19039;DHT22;9652;49.014;12.052;2024-03-07T06:01:35;6.20;62.40
19039;DHT22;9652;49.014;12.052;2024-03-07T06:04:05;6.20;62.50
19039;DHT22;9652;49.014;12.052;2024-03-07T06:06:34;6.20;62.60
19039;DHT22;9652;49.014;12.052;2024-03-07T06:09:03;6.20;62.70
19039;DHT22;9652;49.014;12.052;2024-03-07T06:11:33;6.20;62.90
19039;DHT22;9652;49.014;12.052;2024-03-07T06:14:01;6.30;63.10
19039;DHT22;9652;49.014;12.052;2024-03-07T06:16:29;6.40;63.30
19039;DHT22;9652;49.014;12.052;2024-03-07T06:18:58;6.40;63.50
19039;DHT22;9652;49.014;12.052;2024-03-07T06:21:29;6.50;63.50
19039;DHT22;9652;49.014;12.052;2024-03-07T06:23:56;6.50;63.40
19039;DHT22;9652;49.014;12.052;2024-03-07T06:26:26;6.60;63.30
19039;DHT22;9652;49.014;12.052;2024-03-07T06:29:03;6.70;63.30
19039;DHT22;9652;49.014;12.052;2024-03-07T06:31:31;6.70;63.30
19039;DHT22;9652;49.014;12.052;2024-03-07T06:34:00;6.80;63.40
19039;DHT22;9652;49.014;12.052;2024-03-07T06:36:29;6.80;63.40
19039;DHT22;9652;49.014;12.052;2024-03-07T06:38:56;6.90;63.40
19039;DHT22;9652;49.014;12.052;2024-03-07T06:41:23;6.90;63.40
19039;DHT22;9652;49.014;12.052;2024-03-07T06:43:51;7.00;63.50
19039;DHT22;9652;49.014;12.052;2024-03-07T06:46:20;7.10;63.40
19039;DHT22;9652;49.014;12.052;2024-03-07T06:48:48;7.10;63.40
19039;DHT22;9652;49.014;12.052;2024-03-07T06:51:15;7.20;63.40
19039;DHT22;9652;49.014;12.052;2024-03-07T06:53:44;7.20;63.30
19039;DHT22;9652;49.014;12.052;2024-03-07T06:56:12;7.30;63.40
19039;DHT22;9652;49.014;12.052;2024-03-07T06:58:40;7.30;63.40
19039;DHT22;9652;49.014;12.052;2024-03-07T07:01:08;7.40;63.40
19039;DHT22;9652;49.014;12.052;2024-03-07T07:03:36;7.50;63.40
19039;DHT22;9652;49.014;12.052;2024-03-07T07:06:04;7.50;63.30
19039;DHT22;9652;49.014;12.052;2024-03-07T07:08:32;7.60;63.30
19039;DHT22;9652;49.014;12.052;2024-03-07T07:11:01;7.70;63.40
19039;DHT22;9652;49.014;12.052;2024-03-07T07:13:29;7.70;63.60
19039;DHT22;9652;49.014;12.052;2024-03-07T07:15:56;7.80;63.60
19039;DHT22;9652;49.014;12.052;2024-03-07T07:18:23;7.90;63.60
19039;DHT22;9652;49.014;12.052;2024-03-07T07:20:51;7.90;63.60
19039;DHT22;9652;49.014;12.052;2024-03-07T07:23:18;8.00;63.30
19039;DHT22;9652;49.014;12.052;2024-03-07T07:25:46;8.10;63.20
19039;DHT22;9652;49.014;12.052;2024-03-07T07:28:14;8.10;63.10
19039;DHT22;9652;49.014;12.052;2024-03-07T07:30:42;8.20;63.20
19039;DHT22;9652;49.014;12.052;2024-03-07T07:33:09;8.30;63.20
19039;DHT22;9652;49.014;12.052;2024-03-07T07:35:36;8.30;63.20
19039;DHT22;9652;49.014;12.052;2024-03-07T07:38:04;8.40;63.20
19039;DHT22;9652;49.014;12.052;2024-03-07T07:40:32;8.40;62.90
19039;DHT22;9652;49.014;12.052;2024-03-07T07:43:01;8.50;62.90
19039;DHT22;9652;49.014;12.052;2024-03-07T07:45:30;8.50;62.90
19039;DHT22;9652;49.014;12.052;2024-03-07T07:48:01;8.50;62.80
19039;DHT22;9652;49.014;12.052;2024-03-07T07:50:28;8.60;62.80
19039;DHT22;9652;49.014;12.052;2024-03-07T07:52:57;8.60;63.00
19039;DHT22;9652;49.014;12.052;2024-03-07T07:55:26;8.60;63.00
19039;DHT22;9652;49.014;12.052;2024-03-07T07:57:55;8.70;62.90
19039;DHT22;9652;49.014;12.052;2024-03-07T08:00:25;8.70;62.70
19039;DHT22;9652;49.014;12.052;2024-03-07T08:02:56;8.70;63.40
19039;DHT22;9652;49.014;12.052;2024-03-07T08:05:26;8.70;62.70
19039;DHT22;9652;49.014;12.052;2024-03-07T08:07:59;8.80;62.80
19039;DHT22;9652;49.014;12.052;2024-03-07T08:10:28;8.70;63.10
19039;DHT22;9652;49.014;12.052;2024-03-07T08:12:56;8.80;63.20
19039;DHT22;9652;49.014;12.052;2024-03-07T08:15:25;8.90;63.20
19039;DHT22;9652;49.014;12.052;2024-03-07T08:17:55;8.90;63.30
19039;DHT22;9652;49.014;12.052;2024-03-07T08:20:24;9.00;63.30
19039;DHT22;9652;49.014;12.052;2024-03-07T08:22:53;9.00;63.30
19039;DHT22;9652;49.014;12.052;2024-03-07T08:25:23;9.10;63.10
19039;DHT22;9652;49.014;12.052;2024-03-07T08:27:53;9.10;62.90
19039;DHT22;9652;49.014;12.052;2024-03-07T08:30:21;9.10;63.00
19039;DHT22;9652;49.014;12.052;2024-03-07T08:32:49;9.20;63.20
19039;DHT22;9652;49.014;12.052;2024-03-07T08:35:20;9.20;63.30
19039;DHT22;9652;49.014;12.052;2024-03-07T08:37:48;9.30;63.40
19039;DHT22;9652;49.014;12.052;2024-03-07T08:40:19;9.30;63.50
19039;DHT22;9652;49.014;12.052;2024-03-07T08:42:48;9.40;63.50
19039;DHT22;9652;49.014;12.052;2024-03-07T08:45:17;9.40;63.50
19039;DHT22;9652;49.014;12.052;2024-03-07T08:47:46;9.50;63.50
19039;DHT22;9652;49.014;12.052;2024-03-07T08:50:14;9.60;63.70
19039;DHT22;9652;49.014;12.052;2024-03-07T08:52:45;9.70;63.90
19039;DHT22;9652;49.014;12.052;2024-03-07T08:55:14;9.80;64.30
19039;DHT22;9652;49.014;12.052;2024-03-07T08:57:44;9.90;64.70
19039;DHT22;9652;49.014;12.052;2024-03-07T09:00:13;10.10;65.00
19039;DHT22;9652;49.014;12.052;2024-03-07T09:02:48;10.20;65.00
19039;DHT22;9652;49.014;12.052;2024-03-07T09:05:17;10.40;64.70
19039;DHT22;9652;49.014;12.052;2024-03-07T09:07:46;10.60;64.40
19039;DHT22;9652;49.014;12.052;2024-03-07T09:10:14;10.70;63.70
19039;DHT22;9652;49.014;12.052;2024-03-07T09:12:41;10.90;63.30
19039;DHT22;9652;49.014;12.052;2024-03-07T09:15:09;10.90;62.90
19039;DHT22;9652;49.014;12.052;2024-03-07T09:17:37;11.00;62.60
19039;DHT22;9652;49.014;12.052;2024-03-07T09:20:06;11.00;62.10
19039;DHT22;9652;49.014;12.052;2024-03-07T09:22:34;11.00;61.90
19039;DHT22;9652;49.014;12.052;2024-03-07T09:25:03;11.00;61.80
19039;DHT22;9652;49.014;12.052;2024-03-07T09:27:31;11.00;61.80
19039;DHT22;9652;49.014;12.052;2024-03-07T09:29:58;11.00;61.70
19039;DHT22;9652;49.014;12.052;2024-03-07T09:32:25;11.10;61.60
19039;DHT22;9652;49.014;12.052;2024-03-07T09:34:53;10.90;61.20
19039;DHT22;9652;49.014;12.052;2024-03-07T09:37:20;11.00;61.20
19039;DHT22;9652;49.014;12.052;2024-03-07T09:39:49;11.00;61.20
19039;DHT22;9652;49.014;12.052;2024-03-07T09:42:18;11.00;61.20
19039;DHT22;9652;49.014;12.052;2024-03-07T09:44:45;10.90;61.20
19039;DHT22;9652;49.014;12.052;2024-03-07T09:47:14;10.90;61.20
19039;DHT22;9652;49.014;12.052;2024-03-07T09:49:41;10.90;61.20
19039;DHT22;9652;49.014;12.052;2024-03-07T09:52:09;10.90;61.20
19039;DHT22;9652;49.014;12.052;2024-03-07T09:54:39;10.90;61.10
19039;DHT22;9652;49.014;12.052;2024-03-07T09:57:07;10.90;61.20
19039;DHT22;9652;49.014;12.052;2024-03-07T09:59:36;10.90;61.20
19039;DHT22;9652;49.014;12.052;2024-03-07T10:02:06;10.90;61.20
19039;DHT22;9652;49.014;12.052;2024-03-07T10:04:38;10.90;61.30
19039;DHT22;9652;49.014;12.052;2024-03-07T10:07:14;10.90;61.30
19039;DHT22;9652;49.014;12.052;2024-03-07T10:09:42;10.90;61.20
19039;DHT22;9652;49.014;12.052;2024-03-07T10:12:10;11.00;61.10
19039;DHT22;9652;49.014;12.052;2024-03-07T10:14:49;11.00;61.10
19039;DHT22;9652;49.014;12.052;2024-03-07T10:17:17;11.10;60.70
19039;DHT22;9652;49.014;12.052;2024-03-07T10:19:46;11.10;61.00
19039;DHT22;9652;49.014;12.052;2024-03-07T10:22:16;11.10;60.90
19039;DHT22;9652;49.014;12.052;2024-03-07T10:24:49;11.20;61.10
19039;DHT22;9652;49.014;12.052;2024-03-07T10:27:18;11.20;60.90
19039;DHT22;9652;49.014;12.052;2024-03-07T10:29:46;11.30;61.00
19039;DHT22;9652;49.014;12.052;2024-03-07T10:32:19;11.30;60.90
19039;DHT22;9652;49.014;12.052;2024-03-07T10:34:47;11.40;60.80
19039;DHT22;9652;49.014;12.052;2024-03-07T10:37:14;11.60;61.20
19039;DHT22;9652;49.014;12.052;2024-03-07T10:39:43;11.70;61.30
19039;DHT22;9652;49.014;12.052;2024-03-07T10:42:14;11.80;61.00
19039;DHT22;9652;49.014;12.052;2024-03-07T10:44:44;11.90;60.60
19039;DHT22;9652;49.014;12.052;2024-03-07T10:47:16;12.10;60.40
19039;DHT22;9652;49.014;12.052;2024-03-07T10:49:54;12.10;59.80
19039;DHT22;9652;49.014;12.052;2024-03-07T10:52:39;12.30;59.50
19039;DHT22;9652;49.014;12.052;2024-03-07T10:55:15;12.30;59.40
19039;DHT22;9652;49.014;12.052;2024-03-07T10:57:50;12.40;59.30
19039;DHT22;9652;49.014;12.052;2024-03-07T11:00:19;12.50;59.50
19039;DHT22;9652;49.014;12.052;2024-03-07T11:02:57;12.60;59.30
19039;DHT22;9652;49.014;12.052;2024-03-07T11:05:26;12.60;59.20
19039;DHT22;9652;49.014;12.052;2024-03-07T11:07:57;12.60;59.10
19039;DHT22;9652;49.014;12.052;2024-03-07T11:10:25;12.70;58.80
19039;DHT22;9652;49.014;12.052;2024-03-07T11:12:54;12.80;58.60
19039;DHT22;9652;49.014;12.052;2024-03-07T11:15:23;12.80;58.50
19039;DHT22;9652;49.014;12.052;2024-03-07T11:17:54;12.80;58.50
19039;DHT22;9652;49.014;12.052;2024-03-07T11:20:23;12.80;58.50
19039;DHT22;9652;49.014;12.052;2024-03-07T11:22:52;12.90;58.50
19039;DHT22;9652;49.014;12.052;2024-03-07T11:25:21;13.00;58.60
19039;DHT22;9652;49.014;12.052;2024-03-07T11:27:53;13.10;58.60
19039;DHT22;9652;49.014;12.052;2024-03-07T11:30:23;13.30;58.40
19039;DHT22;9652;49.014;12.052;2024-03-07T11:32:52;13.40;58.30
19039;DHT22;9652;49.014;12.052;2024-03-07T11:35:20;13.40;58.00
19039;DHT22;9652;49.014;12.052;2024-03-07T11:37:58;13.50;57.60
19039;DHT22;9652;49.014;12.052;2024-03-07T11:40:44;13.60;57.00
19039;DHT22;9652;49.014;12.052;2024-03-07T11:43:13;13.60;57.00
19039;DHT22;9652;49.014;12.052;2024-03-07T11:45:40;13.60;57.30
19039;DHT22;9652;49.014;12.052;2024-03-07T11:48:11;13.70;57.30
19039;DHT22;9652;49.014;12.052;2024-03-07T11:50:39;13.70;57.30
19039;DHT22;9652;49.014;12.052;2024-03-07T11:53:09;13.80;57.40
19039;DHT22;9652;49.014;12.052;2024-03-07T11:55:38;13.80;57.00
19039;DHT22;9652;49.014;12.052;2024-03-07T11:58:12;13.90;56.80
19039;DHT22;9652;49.014;12.052;2024-03-07T12:00:42;13.90;56.50
19039;DHT22;9652;49.014;12.052;2024-03-07T12:03:11;13.90;56.50
19039;DHT22;9652;49.014;12.052;2024-03-07T12:05:40;13.90;56.50
19039;DHT22;9652;49.014;12.052;2024-03-07T12:08:10;14.00;56.40
19039;DHT22;9652;49.014;12.052;2024-03-07T12:10:38;13.90;56.10
19039;DHT22;9652;49.014;12.052;2024-03-07T12:13:06;14.00;56.90
19039;DHT22;9652;49.014;12.052;2024-03-07T12:15:34;13.90;56.00
19039;DHT22;9652;49.014;12.052;2024-03-07T12:18:04;13.90;55.90
19039;DHT22;9652;49.014;12.052;2024-03-07T12:20:39;13.90;55.70
19039;DHT22;9652;49.014;12.052;2024-03-07T12:23:08;13.90;55.40
19039;DHT22;9652;49.014;12.052;2024-03-07T12:25:38;13.80;55.50
19039;DHT22;9652;49.014;12.052;2024-03-07T12:28:07;13.80;55.40
19039;DHT22;9652;49.014;12.052;2024-03-07T12:30:48;13.70;55.90
19039;DHT22;9652;49.014;12.052;2024-03-07T12:33:18;13.70;55.00
19039;DHT22;9652;49.014;12.052;2024-03-07T12:35:46;13.60;55.30
19039;DHT22;9652;49.014;12.052;2024-03-07T12:38:17;13.50;55.30
19039;DHT22;9652;49.014;12.052;2024-03-07T12:40:45;13.50;55.40
19039;DHT22;9652;49.014;12.052;2024-03-07T12:43:14;13.50;55.50
19039;DHT22;9652;49.014;12.052;2024-03-07T12:45:44;13.50;55.40
19039;DHT22;9652;49.014;12.052;2024-03-07T12:48:12;13.40;55.30
19039;DHT22;9652;49.014;12.052;2024-03-07T12:50:40;13.40;55.50
19039;DHT22;9652;49.014;12.052;2024-03-07T12:53:07;13.40;55.60
19039;DHT22;9652;49.014;12.052;2024-03-07T12:55:39;13.40;55.70
19039;DHT22;9652;49.014;12.052;2024-03-07T12:58:08;13.40;55.70
19039;DHT22;9652;49.014;12.052;2024-03-07T13:00:37;13.50;55.90
19039;DHT22;9652;49.014;12.052;2024-03-07T13:03:07;13.60;56.00
19039;DHT22;9652;49.014;12.052;2024-03-07T13:05:35;13.60;55.80
19039;DHT22;9652;49.014;12.052;2024-03-07T13:08:06;13.70;55.80
19039;DHT22;9652;49.014;12.052;2024-03-07T13:10:38;13.70;55.80
19039;DHT22;9652;49.014;12.052;2024-03-07T13:13:06;13.80;55.70
19039;DHT22;9652;49.014;12.052;2024-03-07T13:15:35;13.80;55.50
19039;DHT22;9652;49.014;12.052;2024-03-07T13:18:05;13.80;55.30
19039;DHT22;9652;49.014;12.052;2024-03-07T13:20:32;13.90;55.10
19039;DHT22;9652;49.014;12.052;2024-03-07T13:23:00;13.80;55.50
19039;DHT22;9652;49.014;12.052;2024-03-07T13:25:28;13.80;54.90
19039;DHT22;9652;49.014;12.052;2024-03-07T13:28:01;13.80;55.00
19039;DHT22;9652;49.014;12.052;2024-03-07T13:30:34;13.70;54.80
19039;DHT22;9652;49.014;12.052;2024-03-07T13:33:02;13.70;54.90
19039;DHT22;9652;49.014;12.052;2024-03-07T13:35:31;13.70;54.90
19039;DHT22;9652;49.014;12.052;2024-03-07T13:37:59;13.70;54.80
19039;DHT22;9652;49.014;12.052;2024-03-07T13:40:27;13.70;54.60
19039;DHT22;9652;49.014;12.052;2024-03-07T13:42:57;13.70;54.60
19039;DHT22;9652;49.014;12.052;2024-03-07T13:45:27;13.60;54.40
19039;DHT22;9652;49.014;12.052;2024-03-07T13:47:58;13.50;54.30
19039;DHT22;9652;49.014;12.052;2024-03-07T13:50:27;13.50;54.30
19039;DHT22;9652;49.014;12.052;2024-03-07T13:52:56;13.40;54.30
19039;DHT22;9652;49.014;12.052;2024-03-07T13:56:06;13.30;54.30
19039;DHT22;9652;49.014;12.052;2024-03-07T13:59:20;13.10;53.90
19039;DHT22;9652;49.014;12.052;2024-03-07T14:02:11;13.10;54.20
19039;DHT22;9652;49.014;12.052;2024-03-07T14:05:27;12.90;54.40
19039;DHT22;9652;49.014;12.052;2024-03-07T14:15:24;12.90;55.20
19039;DHT22;9652;49.014;12.052;2024-03-07T14:22:13;12.90;55.00
19039;DHT22;9652;49.014;12.052;2024-03-07T14:25:19;13.00;54.90
19039;DHT22;9652;49.014;12.052;2024-03-07T14:28:15;12.90;54.60
19039;DHT22;9652;49.014;12.052;2024-03-07T14:30:55;12.90;54.70
19039;DHT22;9652;49.014;12.052;2024-03-07T14:33:27;12.90;55.00
19039;DHT22;9652;49.014;12.052;2024-03-07T14:36:02;12.80;54.90
19039;DHT22;9652;49.014;12.052;2024-03-07T14:38:50;12.80;54.90
19039;DHT22;9652;49.014;12.052;2024-03-07T14:41:24;12.80;54.60
19039;DHT22;9652;49.014;12.052;2024-03-07T14:44:10;12.80;54.90
19039;DHT22;9652;49.014;12.052;2024-03-07T14:46:37;12.80;55.50
19039;DHT22;9652;49.014;12.052;2024-03-07T14:49:04;12.80;54.80
19039;DHT22;9652;49.014;12.052;2024-03-07T14:51:34;12.80;54.90
19039;DHT22;9652;49.014;12.052;2024-03-07T14:54:02;12.80;54.80
19039;DHT22;9652;49.014;12.052;2024-03-07T14:56:29;12.80;54.90
19039;DHT22;9652;49.014;12.052;2024-03-07T14:58:56;12.80;55.00
19039;DHT22;9652;49.014;12.052;2024-03-07T15:01:23;12.80;54.90
19039;DHT22;9652;49.014;12.052;2024-03-07T15:03:52;12.80;54.80
19039;DHT22;9652;49.014;12.052;2024-03-07T15:06:20;12.80;54.70
19039;DHT22;9652;49.014;12.052;2024-03-07T15:08:48;12.80;54.60
19039;DHT22;9652;49.014;12.052;2024-03-07T15:11:22;12.70;54.50
19039;DHT22;9652;49.014;12.052;2024-03-07T15:13:54;12.70;54.40
19039;DHT22;9652;49.014;12.052;2024-03-07T15:16:21;12.70;54.40
19039;DHT22;9652;49.014;12.052;2024-03-07T15:18:49;12.60;54.40
19039;DHT22;9652;49.014;12.052;2024-03-07T15:21:16;12.60;54.60
19039;DHT22;9652;49.014;12.052;2024-03-07T15:23:46;12.50;54.60
19039;DHT22;9652;49.014;12.052;2024-03-07T15:26:13;12.50;54.60
19039;DHT22;9652;49.014;12.052;2024-03-07T15:28:42;12.50;54.60
19039;DHT22;9652;49.014;12.052;2024-03-07T15:31:09;12.40;54.60
19039;DHT22;9652;49.014;12.052;2024-03-07T15:33:40;12.40;54.80
19039;DHT22;9652;49.014;12.052;2024-03-07T15:36:08;12.40;54.80
19039;DHT22;9652;49.014;12.052;2024-03-07T15:38:35;12.30;54.80
19039;DHT22;9652;49.014;12.052;2024-03-07T15:41:04;12.30;54.80
19039;DHT22;9652;49.014;12.052;2024-03-07T15:43:33;12.30;54.80
19039;DHT22;9652;49.014;12.052;2024-03-07T15:46:02;12.20;54.70
19039;DHT22;9652;49.014;12.052;2024-03-07T15:48:30;12.20;54.70
19039;DHT22;9652;49.014;12.052;2024-03-07T15:50:58;12.10;54.80
19039;DHT22;9652;49.014;12.052;2024-03-07T15:53:25;12.10;54.80
19039;DHT22;9652;49.014;12.052;2024-03-07T15:55:52;12.10;54.90
19039;DHT22;9652;49.014;12.052;2024-03-07T15:58:19;12.00;55.00
19039;DHT22;9652;49.014;12.052;2024-03-07T16:00:47;12.00;55.00
19039;DHT22;9652;49.014;12.052;2024-03-07T16:03:16;12.00;55.20
19039;DHT22;9652;49.014;12.052;2024-03-07T16:05:44;11.90;55.10